sensor_id;sensor_type;location;lat;lon;timestamp;temperature;humidity
9808;DHT22;4943;52.550;13.462;2023-07-20T00:00:15;20.50;99.00
9808;DHT22;4943;52.550;13.462;2023-07-20T00:03:11;20.40;99.00
9808;DHT22;4943;52.550;13.462;2023-07-20T00:05:44;20.40;99.20
9808;DHT22;4943;52.550;13.462;2023-07-20T00:08:13;20.40;99.10
9808;DHT22;4943;52.550;13.462;2023-07-20T00:10:42;20.40;99.20
9808;DHT22;4943;52.550;13.462;2023-07-20T00:13:11;20.40;99.30
9808;DHT22;4943;52.550;13.462;2023-07-20T00:15:39;20.40;99.30
9808;DHT22;4943;52.550;13.462;2023-07-20T00:18:07;20.30;99.30
9808;DHT22;4943;52.550;13.462;2023-07-20T00:20:36;20.30;99.60
9808;DHT22;4943;52.550;13.462;2023-07-20T00:23:04;20.30;99.50
9808;DHT22;4943;52.550;13.462;2023-07-20T00:25:34;20.30;99.50
9808;DHT22;4943;52.550;13.462;2023-07-20T00:28:02;20.30;99.60
9808;DHT22;4943;52.550;13.462;2023-07-20T00:30:30;20.30;99.60
9808;DHT22;4943;52.550;13.462;2023-07-20T00:32:58;20.30;99.60
9808;DHT22;4943;52.550;13.462;2023-07-20T00:35:26;20.30;99.60
9808;DHT22;4943;52.550;13.462;2023-07-20T00:37:54;20.20;99.70
9808;DHT22;4943;52.550;13.462;2023-07-20T00:40:23;20.20;99.70
9808;DHT22;4943;52.550;13.462;2023-07-20T00:42:52;20.20;99.80
9808;DHT22;4943;52.550;13.462;2023-07-20T00:45:20;20.20;99.80
9808;DHT22;4943;52.550;13.462;2023-07-20T00:47:48;20.20;99.90
9808;DHT22;4943;52.550;13.462;2023-07-20T00:50:17;20.10;99.90
9808;DHT22;4943;52.550;13.462;2023-07-20T00:52:45;20.00;99.90
9808;DHT22;4943;52.550;13.462;2023-07-20T00:55:13;20.00;99.90
9808;DHT22;4943;52.550;13.462;2023-07-20T00:57:41;20.00;99.90
9808;DHT22;4943;52.550;13.462;2023-07-20T01:00:12;19.90;99.90
9808;DHT22;4943;52.550;13.462;2023-07-20T01:02:40;19.90;99.90
9808;DHT22;4943;52.550;13.462;2023-07-20T01:05:09;19.90;99.90
9808;DHT22;4943;52.550;13.462;2023-07-20T01:07:43;19.80;99.90
9808;DHT22;4943;52.550;13.462;2023-07-20T01:10:18;19.80;99.90
9808;DHT22;4943;52.550;13.462;2023-07-20T01:12:49;19.80;99.90
9808;DHT22;4943;52.550;13.462;2023-07-20T01:15:20;19.70;99.90
9808;DHT22;4943;52.550;13.462;2023-07-20T01:17:49;19.60;99.90
9808;DHT22;4943;52.550;13.462;2023-07-20T01:20:19;19.60;99.90
9808;DHT22;4943;52.550;13.462;2023-07-20T01:23:12;19.50;99.90
9808;DHT22;4943;52.550;13.462;2023-07-20T01:26:02;19.50;99.90
9808;DHT22;4943;52.550;13.462;2023-07-20T01:31:44;19.60;99.90
9808;DHT22;4943;52.550;13.462;2023-07-20T01:34:15;19.60;99.90
9808;DHT22;4943;52.550;13.462;2023-07-20T01:36:46;19.60;99.90
9808;DHT22;4943;52.550;13.462;2023-07-20T01:39:16;19.60;99.90
9808;DHT22;4943;52.550;13.462;2023-07-20T01:41:45;19.70;99.90
9808;DHT22;4943;52.550;13.462;2023-07-20T01:44:14;19.70;99.90
9808;DHT22;4943;52.550;13.462;2023-07-20T01:46:44;19.70;99.90
9808;DHT22;4943;52.550;13.462;2023-07-20T01:49:12;19.70;99.90
9808;DHT22;4943;52.550;13.462;2023-07-20T01:51:40;19.70;99.90
9808;DHT22;4943;52.550;13.462;2023-07-20T01:54:08;19.70;99.90
9808;DHT22;4943;52.550;13.462;2023-07-20T01:56:38;19.60;99.90
9808;DHT22;4943;52.550;13.462;2023-07-20T01:59:06;19.60;99.90
9808;DHT22;4943;52.550;13.462;2023-07-20T02:01:34;19.60;99.90
9808;DHT22;4943;52.550;13.462;2023-07-20T02:04:03;19.60;99.90
9808;DHT22;4943;52.550;13.462;2023-07-20T02:06:32;19.70;99.90
9808;DHT22;4943;52.550;13.462;2023-07-20T02:09:00;19.70;99.90
9808;DHT22;4943;52.550;13.462;2023-07-20T02:11:28;19.70;99.90
9808;DHT22;4943;52.550;13.462;2023-07-20T02:13:56;19.70;99.90
9808;DHT22;4943;52.550;13.462;2023-07-20T02:16:24;19.70;99.90
9808;DHT22;4943;52.550;13.462;2023-07-20T02:18:53;19.70;99.90
9808;DHT22;4943;52.550;13.462;2023-07-20T02:21:25;19.70;99.90
9808;DHT22;4943;52.550;13.462;2023-07-20T02:23:53;19.70;99.90
9808;DHT22;4943;52.550;13.462;2023-07-20T02:26:21;19.70;99.90
9808;DHT22;4943;52.550;13.462;2023-07-20T02:28:50;19.60;99.90
9808;DHT22;4943;52.550;13.462;2023-07-20T02:31:18;19.70;99.90
9808;DHT22;4943;52.550;13.462;2023-07-20T02:33:47;19.70;99.90
9808;DHT22;4943;52.550;13.462;2023-07-20T02:36:15;19.70;99.90
9808;DHT22;4943;52.550;13.462;2023-07-20T02:38:45;19.70;99.90
9808;DHT22;4943;52.550;13.462;2023-07-20T02:41:13;19.60;99.90
9808;DHT22;4943;52.550;13.462;2023-07-20T02:43:42;19.60;99.90
9808;DHT22;4943;52.550;13.462;2023-07-20T02:46:10;19.50;99.90
9808;DHT22;4943;52.550;13.462;2023-07-20T02:48:38;19.50;99.90
9808;DHT22;4943;52.550;13.462;2023-07-20T02:51:06;19.40;99.90
9808;DHT22;4943;52.550;13.462;2023-07-20T02:53:36;19.40;99.90
9808;DHT22;4943;52.550;13.462;2023-07-20T02:56:06;19.40;99.90
9808;DHT22;4943;52.550;13.462;2023-07-20T02:58:34;19.40;99.90
9808;DHT22;4943;52.550;13.462;2023-07-20T03:01:04;19.30;99.90
9808;DHT22;4943;52.550;13.462;2023-07-20T03:03:32;19.30;99.90
9808;DHT22;4943;52.550;13.462;2023-07-20T03:06:05;19.30;99.90
9808;DHT22;4943;52.550;13.462;2023-07-20T03:08:36;19.30;99.90
9808;DHT22;4943;52.550;13.462;2023-07-20T03:11:06;19.30;99.90
9808;DHT22;4943;52.550;13.462;2023-07-20T03:13:34;19.20;99.90
9808;DHT22;4943;52.550;13.462;2023-07-20T03:16:02;19.20;99.90
9808;DHT22;4943;52.550;13.462;2023-07-20T03:18:31;19.10;99.90
9808;DHT22;4943;52.550;13.462;2023-07-20T03:20:59;19.10;99.90
9808;DHT22;4943;52.550;13.462;2023-07-20T03:23:27;19.10;99.90
9808;DHT22;4943;52.550;13.462;2023-07-20T03:25:55;19.10;99.90
9808;DHT22;4943;52.550;13.462;2023-07-20T03:28:25;19.10;99.90
9808;DHT22;4943;52.550;13.462;2023-07-20T03:30:53;19.10;99.90
9808;DHT22;4943;52.550;13.462;2023-07-20T03:33:24;19.10;99.90
9808;DHT22;4943;52.550;13.462;2023-07-20T03:35:52;19.10;99.90
9808;DHT22;4943;52.550;13.462;2023-07-20T03:38:21;19.10;99.90
9808;DHT22;4943;52.550;13.462;2023-07-20T03:40:49;19.20;99.90
9808;DHT22;4943;52.550;13.462;2023-07-20T03:43:18;19.20;99.90
9808;DHT22;4943;52.550;13.462;2023-07-20T03:45:48;19.20;99.90
9808;DHT22;4943;52.550;13.462;2023-07-20T03:48:17;19.10;99.90
9808;DHT22;4943;52.550;13.462;2023-07-20T03:50:46;19.10;99.90
9808;DHT22;4943;52.550;13.462;2023-07-20T03:53:15;19.10;99.90
9808;DHT22;4943;52.550;13.462;2023-07-20T03:55:44;19.10;99.90
9808;DHT22;4943;52.550;13.462;2023-07-20T03:58:13;19.10;99.90
9808;DHT22;4943;52.550;13.462;2023-07-20T04:00:44;19.20;99.90
9808;DHT22;4943;52.550;13.462;2023-07-20T04:03:14;19.20;99.90
9808;DHT22;4943;52.550;13.462;2023-07-20T04:05:43;19.20;99.90
9808;DHT22;4943;52.550;13.462;2023-07-20T04:08:11;19.20;99.90
9808;DHT22;4943;52.550;13.462;2023-07-20T04:10:42;19.20;99.90
9808;DHT22;4943;52.550;13.462;2023-07-20T04:13:11;19.20;99.90
9808;DHT22;4943;52.550;13.462;2023-07-20T04:15:39;19.20;99.90
9808;DHT22;4943;52.550;13.462;2023-07-20T04:18:07;19.20;99.90
9808;DHT22;4943;52.550;13.462;2023-07-20T04:20:36;19.20;99.90
9808;DHT22;4943;52.550;13.462;2023-07-20T04:23:04;19.20;99.90
9808;DHT22;4943;52.550;13.462;2023-07-20T04:25:33;19.20;99.90
9808;DHT22;4943;52.550;13.462;2023-07-20T04:28:07;19.20;99.90
9808;DHT22;4943;52.550;13.462;2023-07-20T04:30:38;19.20;99.90
9808;DHT22;4943;52.550;13.462;2023-07-20T04:33:07;19.20;99.90
9808;DHT22;4943;52.550;13.462;2023-07-20T04:35:49;19.20;99.90
9808;DHT22;4943;52.550;13.462;2023-07-20T04:38:17;19.20;99.90
9808;DHT22;4943;52.550;13.462;2023-07-20T04:40:46;19.20;99.90
9808;DHT22;4943;52.550;13.462;2023-07-20T04:43:15;19.30;99.90
9808;DHT22;4943;52.550;13.462;2023-07-20T04:45:44;19.40;99.90
9808;DHT22;4943;52.550;13.462;2023-07-20T04:48:14;19.40;99.90
9808;DHT22;4943;52.550;13.462;2023-07-20T04:50:44;19.50;99.90
9808;DHT22;4943;52.550;13.462;2023-07-20T04:53:13;19.60;99.90
9808;DHT22;4943;52.550;13.462;2023-07-20T04:55:47;19.60;99.90
9808;DHT22;4943;52.550;13.462;2023-07-20T04:58:18;19.60;99.90
9808;DHT22;4943;52.550;13.462;2023-07-20T05:00:46;19.60;99.90
9808;DHT22;4943;52.550;13.462;2023-07-20T05:03:14;19.60;99.90
9808;DHT22;4943;52.550;13.462;2023-07-20T05:05:42;19.70;99.90
9808;DHT22;4943;52.550;13.462;2023-07-20T05:08:15;19.70;99.90
9808;DHT22;4943;52.550;13.462;2023-07-20T05:10:44;19.80;99.90
9808;DHT22;4943;52.550;13.462;2023-07-20T05:13:12;19.80;99.90
9808;DHT22;4943;52.550;13.462;2023-07-20T05:15:40;19.80;99.90
9808;DHT22;4943;52.550;13.462;2023-07-20T05:18:10;19.90;99.90
9808;DHT22;4943;52.550;13.462;2023-07-20T05:20:38;20.00;99.90
9808;DHT22;4943;52.550;13.462;2023-07-20T05:23:06;20.00;99.90
9808;DHT22;4943;52.550;13.462;2023-07-20T05:25:35;20.00;99.90
9808;DHT22;4943;52.550;13.462;2023-07-20T05:28:04;20.00;99.90
9808;DHT22;4943;52.550;13.462;2023-07-20T05:30:34;20.10;99.90
9808;DHT22;4943;52.550;13.462;2023-07-20T05:33:02;20.10;99.90
9808;DHT22;4943;52.550;13.462;2023-07-20T05:35:30;20.10;99.90
9808;DHT22;4943;52.550;13.462;2023-07-20T05:37:58;20.00;99.90
9808;DHT22;4943;52.550;13.462;2023-07-20T05:40:27;19.90;99.90
9808;DHT22;4943;52.550;13.462;2023-07-20T05:42:56;19.90;99.90
9808;DHT22;4943;52.550;13.462;2023-07-20T05:45:24;19.90;99.90
9808;DHT22;4943;52.550;13.462;2023-07-20T05:47:52;20.00;99.90
9808;DHT22;4943;52.550;13.462;2023-07-20T05:50:21;20.00;99.90
9808;DHT22;4943;52.550;13.462;2023-07-20T05:52:51;20.10;99.90
9808;DHT22;4943;52.550;13.462;2023-07-20T05:55:20;20.10;99.90
9808;DHT22;4943;52.550;13.462;2023-07-20T05:57:48;20.20;99.90
9808;DHT22;4943;52.550;13.462;2023-07-20T06:00:19;20.20;99.90
9808;DHT22;4943;52.550;13.462;2023-07-20T06:02:53;20.30;99.90
9808;DHT22;4943;52.550;13.462;2023-07-20T06:05:22;20.40;99.90
9808;DHT22;4943;52.550;13.462;2023-07-20T06:07:55;20.40;99.90
9808;DHT22;4943;52.550;13.462;2023-07-20T06:10:24;20.50;99.90
9808;DHT22;4943;52.550;13.462;2023-07-20T06:12:53;20.60;99.90
9808;DHT22;4943;52.550;13.462;2023-07-20T06:15:27;20.60;99.90
9808;DHT22;4943;52.550;13.462;2023-07-20T06:17:56;20.70;99.90
9808;DHT22;4943;52.550;13.462;2023-07-20T06:20:25;20.70;99.90
9808;DHT22;4943;52.550;13.462;2023-07-20T06:22:53;20.50;99.90
9808;DHT22;4943;52.550;13.462;2023-07-20T06:25:22;20.50;99.90
9808;DHT22;4943;52.550;13.462;2023-07-20T06:27:50;20.40;99.90
9808;DHT22;4943;52.550;13.462;2023-07-20T06:30:19;20.50;99.90
9808;DHT22;4943;52.550;13.462;2023-07-20T06:32:49;20.60;99.90
9808;DHT22;4943;52.550;13.462;2023-07-20T06:35:17;20.70;99.90
9808;DHT22;4943;52.550;13.462;2023-07-20T06:37:46;20.90;99.90
9808;DHT22;4943;52.550;13.462;2023-07-20T06:40:14;20.90;99.90
9808;DHT22;4943;52.550;13.462;2023-07-20T06:42:45;21.00;99.90
9808;DHT22;4943;52.550;13.462;2023-07-20T06:45:16;21.00;99.90
9808;DHT22;4943;52.550;13.462;2023-07-20T06:47:44;21.00;99.90
9808;DHT22;4943;52.550;13.462;2023-07-20T06:50:14;20.90;99.90
9808;DHT22;4943;52.550;13.462;2023-07-20T06:52:44;20.80;99.50
9808;DHT22;4943;52.550;13.462;2023-07-20T06:55:15;20.70;99.50
9808;DHT22;4943;52.550;13.462;2023-07-20T06:57:49;20.70;99.80
9808;DHT22;4943;52.550;13.462;2023-07-20T07:00:19;20.70;99.90
9808;DHT22;4943;52.550;13.462;2023-07-20T07:02:47;20.80;99.90
9808;DHT22;4943;52.550;13.462;2023-07-20T07:05:18;20.90;99.90
9808;DHT22;4943;52.550;13.462;2023-07-20T07:07:47;21.00;99.70
9808;DHT22;4943;52.550;13.462;2023-07-20T07:10:15;21.10;99.50
9808;DHT22;4943;52.550;13.462;2023-07-20T07:12:45;21.10;99.30
9808;DHT22;4943;52.550;13.462;2023-07-20T07:15:13;21.10;98.70
9808;DHT22;4943;52.550;13.462;2023-07-20T07:17:43;21.10;98.70
9808;DHT22;4943;52.550;13.462;2023-07-20T07:20:11;21.00;98.80
9808;DHT22;4943;52.550;13.462;2023-07-20T07:22:50;21.00;98.80
9808;DHT22;4943;52.550;13.462;2023-07-20T07:25:19;21.00;98.90
9808;DHT22;4943;52.550;13.462;2023-07-20T07:27:50;21.10;98.90
9808;DHT22;4943;52.550;13.462;2023-07-20T07:30:19;21.10;98.90
9808;DHT22;4943;52.550;13.462;2023-07-20T07:32:47;21.20;99.10
9808;DHT22;4943;52.550;13.462;2023-07-20T07:35:16;21.30;98.70
9808;DHT22;4943;52.550;13.462;2023-07-20T07:37:44;21.40;98.70
9808;DHT22;4943;52.550;13.462;2023-07-20T07:40:34;21.50;99.00
9808;DHT22;4943;52.550;13.462;2023-07-20T07:43:02;21.70;98.60
9808;DHT22;4943;52.550;13.462;2023-07-20T07:45:33;21.80;98.30
9808;DHT22;4943;52.550;13.462;2023-07-20T07:48:02;21.80;98.40
9808;DHT22;4943;52.550;13.462;2023-07-20T07:50:31;22.00;98.40
9808;DHT22;4943;52.550;13.462;2023-07-20T07:52:59;22.10;98.00
9808;DHT22;4943;52.550;13.462;2023-07-20T07:55:27;22.20;98.00
9808;DHT22;4943;52.550;13.462;2023-07-20T07:57:57;22.30;97.50
9808;DHT22;4943;52.550;13.462;2023-07-20T08:00:26;22.40;97.30
9808;DHT22;4943;52.550;13.462;2023-07-20T08:02:54;22.50;97.30
9808;DHT22;4943;52.550;13.462;2023-07-20T08:05:22;22.60;97.20
9808;DHT22;4943;52.550;13.462;2023-07-20T08:07:50;22.70;96.60
9808;DHT22;4943;52.550;13.462;2023-07-20T08:10:19;22.80;96.50
9808;DHT22;4943;52.550;13.462;2023-07-20T08:12:47;22.90;96.20
9808;DHT22;4943;52.550;13.462;2023-07-20T08:15:16;23.00;96.20
9808;DHT22;4943;52.550;13.462;2023-07-20T08:17:46;23.00;95.40
9808;DHT22;4943;52.550;13.462;2023-07-20T08:20:15;23.00;95.60
9808;DHT22;4943;52.550;13.462;2023-07-20T08:22:44;23.10;95.60
9808;DHT22;4943;52.550;13.462;2023-07-20T08:25:14;23.10;95.10
9808;DHT22;4943;52.550;13.462;2023-07-20T08:27:42;23.10;95.20
9808;DHT22;4943;52.550;13.462;2023-07-20T08:30:13;23.10;95.00
9808;DHT22;4943;52.550;13.462;2023-07-20T08:32:43;23.10;94.70
9808;DHT22;4943;52.550;13.462;2023-07-20T08:35:11;23.10;94.60
9808;DHT22;4943;52.550;13.462;2023-07-20T08:37:42;23.10;94.30
9808;DHT22;4943;52.550;13.462;2023-07-20T08:40:11;23.10;94.40
9808;DHT22;4943;52.550;13.462;2023-07-20T08:42:40;23.10;94.50
9808;DHT22;4943;52.550;13.462;2023-07-20T08:45:09;23.20;94.50
9808;DHT22;4943;52.550;13.462;2023-07-20T08:47:40;23.30;94.00
9808;DHT22;4943;52.550;13.462;2023-07-20T08:50:11;23.20;93.90
9808;DHT22;4943;52.550;13.462;2023-07-20T08:52:40;23.10;93.90
9808;DHT22;4943;52.550;13.462;2023-07-20T08:55:09;23.10;94.00
9808;DHT22;4943;52.550;13.462;2023-07-20T08:57:38;23.10;94.00
9808;DHT22;4943;52.550;13.462;2023-07-20T09:00:09;23.20;94.00
9808;DHT22;4943;52.550;13.462;2023-07-20T09:02:40;23.20;93.70
9808;DHT22;4943;52.550;13.462;2023-07-20T09:05:11;23.20;93.60
9808;DHT22;4943;52.550;13.462;2023-07-20T09:07:41;23.30;93.60
9808;DHT22;4943;52.550;13.462;2023-07-20T09:10:09;23.40;93.70
9808;DHT22;4943;52.550;13.462;2023-07-20T09:12:39;23.60;93.50
9808;DHT22;4943;52.550;13.462;2023-07-20T09:15:09;23.70;93.40
9808;DHT22;4943;52.550;13.462;2023-07-20T09:17:38;23.90;93.30
9808;DHT22;4943;52.550;13.462;2023-07-20T09:20:08;24.00;93.00
9808;DHT22;4943;52.550;13.462;2023-07-20T09:22:39;24.00;92.20
9808;DHT22;4943;52.550;13.462;2023-07-20T09:25:10;23.90;92.30
9808;DHT22;4943;52.550;13.462;2023-07-20T09:27:39;24.00;92.60
9808;DHT22;4943;52.550;13.462;2023-07-20T09:30:10;24.10;92.60
9808;DHT22;4943;52.550;13.462;2023-07-20T09:32:45;24.20;92.20
9808;DHT22;4943;52.550;13.462;2023-07-20T09:35:17;24.30;92.10
9808;DHT22;4943;52.550;13.462;2023-07-20T09:37:54;24.30;92.10
9808;DHT22;4943;52.550;13.462;2023-07-20T09:40:27;24.30;91.90
9808;DHT22;4943;52.550;13.462;2023-07-20T09:42:59;24.30;91.70
9808;DHT22;4943;52.550;13.462;2023-07-20T09:45:33;24.20;91.80
9808;DHT22;4943;52.550;13.462;2023-07-20T09:48:07;24.10;91.30
9808;DHT22;4943;52.550;13.462;2023-07-20T09:50:42;23.80;91.30
9808;DHT22;4943;52.550;13.462;2023-07-20T09:53:13;23.60;91.20
9808;DHT22;4943;52.550;13.462;2023-07-20T09:55:43;23.40;91.20
9808;DHT22;4943;52.550;13.462;2023-07-20T09:58:12;23.30;91.20
9808;DHT22;4943;52.550;13.462;2023-07-20T10:00:41;23.00;91.30
9808;DHT22;4943;52.550;13.462;2023-07-20T10:03:19;22.90;91.70
9808;DHT22;4943;52.550;13.462;2023-07-20T10:05:52;22.80;92.00
9808;DHT22;4943;52.550;13.462;2023-07-20T10:08:24;22.80;92.30
9808;DHT22;4943;52.550;13.462;2023-07-20T10:10:57;22.90;92.60
9808;DHT22;4943;52.550;13.462;2023-07-20T10:13:29;23.00;92.70
9808;DHT22;4943;52.550;13.462;2023-07-20T10:16:01;23.00;92.50
9808;DHT22;4943;52.550;13.462;2023-07-20T10:18:34;23.00;92.60
9808;DHT22;4943;52.550;13.462;2023-07-20T10:21:06;23.10;92.60
9808;DHT22;4943;52.550;13.462;2023-07-20T10:23:39;23.20;92.60
9808;DHT22;4943;52.550;13.462;2023-07-20T10:26:07;23.20;92.60
9808;DHT22;4943;52.550;13.462;2023-07-20T10:28:36;23.20;92.60
9808;DHT22;4943;52.550;13.462;2023-07-20T10:31:07;23.30;92.50
9808;DHT22;4943;52.550;13.462;2023-07-20T10:33:36;23.40;92.50
9808;DHT22;4943;52.550;13.462;2023-07-20T10:36:06;23.60;92.40
9808;DHT22;4943;52.550;13.462;2023-07-20T10:38:45;23.70;92.20
9808;DHT22;4943;52.550;13.462;2023-07-20T10:41:21;23.80;91.50
9808;DHT22;4943;52.550;13.462;2023-07-20T10:43:55;23.80;91.50
9808;DHT22;4943;52.550;13.462;2023-07-20T10:46:43;23.80;91.30
9808;DHT22;4943;52.550;13.462;2023-07-20T10:49:13;24.00;91.30
9808;DHT22;4943;52.550;13.462;2023-07-20T10:51:43;24.10;91.30
9808;DHT22;4943;52.550;13.462;2023-07-20T10:54:36;24.10;91.10
9808;DHT22;4943;52.550;13.462;2023-07-20T10:57:23;24.20;91.00
9808;DHT22;4943;52.550;13.462;2023-07-20T10:59:51;24.30;91.20
9808;DHT22;4943;52.550;13.462;2023-07-20T11:02:20;24.40;91.20
9808;DHT22;4943;52.550;13.462;2023-07-20T11:04:48;24.40;91.20
9808;DHT22;4943;52.550;13.462;2023-07-20T11:07:17;24.50;90.90
9808;DHT22;4943;52.550;13.462;2023-07-20T11:09:49;24.40;90.70
9808;DHT22;4943;52.550;13.462;2023-07-20T11:12:22;24.40;90.40
9808;DHT22;4943;52.550;13.462;2023-07-20T11:14:54;24.30;90.40
9808;DHT22;4943;52.550;13.462;2023-07-20T11:17:29;24.30;90.70
9808;DHT22;4943;52.550;13.462;2023-07-20T11:19:59;24.40;90.70
9808;DHT22;4943;52.550;13.462;2023-07-20T11:22:31;24.40;90.70
9808;DHT22;4943;52.550;13.462;2023-07-20T11:25:01;24.40;90.60
9808;DHT22;4943;52.550;13.462;2023-07-20T11:27:30;24.50;90.70
9808;DHT22;4943;52.550;13.462;2023-07-20T11:29:58;24.60;90.90
9808;DHT22;4943;52.550;13.462;2023-07-20T11:32:26;24.80;91.00
9808;DHT22;4943;52.550;13.462;2023-07-20T11:34:54;25.10;90.80
9808;DHT22;4943;52.550;13.462;2023-07-20T11:37:23;25.20;90.70
9808;DHT22;4943;52.550;13.462;2023-07-20T11:39:55;25.20;89.80
9808;DHT22;4943;52.550;13.462;2023-07-20T11:42:25;25.20;89.70
9808;DHT22;4943;52.550;13.462;2023-07-20T11:44:56;25.20;89.40
9808;DHT22;4943;52.550;13.462;2023-07-20T11:47:30;25.20;89.60
9808;DHT22;4943;52.550;13.462;2023-07-20T11:50:03;25.30;90.00
9808;DHT22;4943;52.550;13.462;2023-07-20T11:52:31;25.40;90.00
9808;DHT22;4943;52.550;13.462;2023-07-20T11:55:00;25.50;89.10
9808;DHT22;4943;52.550;13.462;2023-07-20T11:57:30;25.50;88.30
9808;DHT22;4943;52.550;13.462;2023-07-20T12:00:01;25.40;87.60
9808;DHT22;4943;52.550;13.462;2023-07-20T12:02:32;25.30;87.20
9808;DHT22;4943;52.550;13.462;2023-07-20T12:05:02;25.10;87.70
9808;DHT22;4943;52.550;13.462;2023-07-20T12:07:36;25.00;87.90
9808;DHT22;4943;52.550;13.462;2023-07-20T12:10:08;25.00;87.50
9808;DHT22;4943;52.550;13.462;2023-07-20T12:12:39;24.70;87.70
9808;DHT22;4943;52.550;13.462;2023-07-20T12:15:15;24.50;88.70
9808;DHT22;4943;52.550;13.462;2023-07-20T12:17:44;24.20;89.40
9808;DHT22;4943;52.550;13.462;2023-07-20T12:20:13;24.00;89.80
9808;DHT22;4943;52.550;13.462;2023-07-20T12:22:43;23.90;90.00
9808;DHT22;4943;52.550;13.462;2023-07-20T12:25:11;23.80;89.60
9808;DHT22;4943;52.550;13.462;2023-07-20T12:27:41;23.80;90.00
9808;DHT22;4943;52.550;13.462;2023-07-20T12:30:12;23.80;90.10
9808;DHT22;4943;52.550;13.462;2023-07-20T12:32:40;23.80;90.30
9808;DHT22;4943;52.550;13.462;2023-07-20T12:35:09;24.00;90.30
9808;DHT22;4943;52.550;13.462;2023-07-20T12:37:38;24.20;90.00
9808;DHT22;4943;52.550;13.462;2023-07-20T12:40:07;24.40;89.70
9808;DHT22;4943;52.550;13.462;2023-07-20T12:42:37;24.50;88.70
9808;DHT22;4943;52.550;13.462;2023-07-20T12:45:08;24.40;87.90
9808;DHT22;4943;52.550;13.462;2023-07-20T12:47:37;24.20;86.90
9808;DHT22;4943;52.550;13.462;2023-07-20T12:50:06;24.00;87.30
9808;DHT22;4943;52.550;13.462;2023-07-20T12:52:36;23.90;87.40
9808;DHT22;4943;52.550;13.462;2023-07-20T12:55:06;23.70;87.90
9808;DHT22;4943;52.550;13.462;2023-07-20T12:57:35;23.60;88.30
9808;DHT22;4943;52.550;13.462;2023-07-20T13:00:04;23.60;88.60
9808;DHT22;4943;52.550;13.462;2023-07-20T13:02:36;23.50;88.10
9808;DHT22;4943;52.550;13.462;2023-07-20T13:05:05;23.50;87.60
9808;DHT22;4943;52.550;13.462;2023-07-20T13:07:34;23.50;87.30
9808;DHT22;4943;52.550;13.462;2023-07-20T13:10:06;23.50;85.80
9808;DHT22;4943;52.550;13.462;2023-07-20T13:12:36;23.40;85.30
9808;DHT22;4943;52.550;13.462;2023-07-20T13:15:06;23.40;85.60
9808;DHT22;4943;52.550;13.462;2023-07-20T13:17:37;23.50;85.40
9808;DHT22;4943;52.550;13.462;2023-07-20T13:20:08;23.50;85.20
9808;DHT22;4943;52.550;13.462;2023-07-20T13:22:37;23.50;84.90
9808;DHT22;4943;52.550;13.462;2023-07-20T13:25:07;23.50;84.10
9808;DHT22;4943;52.550;13.462;2023-07-20T13:27:35;23.40;83.70
9808;DHT22;4943;52.550;13.462;2023-07-20T13:30:06;23.40;83.70
9808;DHT22;4943;52.550;13.462;2023-07-20T13:32:38;23.50;83.60
9808;DHT22;4943;52.550;13.462;2023-07-20T13:35:10;23.50;84.00
9808;DHT22;4943;52.550;13.462;2023-07-20T13:37:38;23.60;84.00
9808;DHT22;4943;52.550;13.462;2023-07-20T13:40:07;23.70;83.60
9808;DHT22;4943;52.550;13.462;2023-07-20T13:42:38;23.80;82.80
9808;DHT22;4943;52.550;13.462;2023-07-20T13:45:07;23.80;81.70
9808;DHT22;4943;52.550;13.462;2023-07-20T13:47:37;23.80;82.00
9808;DHT22;4943;52.550;13.462;2023-07-20T13:50:06;23.90;82.30
9808;DHT22;4943;52.550;13.462;2023-07-20T13:52:51;24.00;82.10
9808;DHT22;4943;52.550;13.462;2023-07-20T13:55:39;24.10;82.20
9808;DHT22;4943;52.550;13.462;2023-07-20T13:58:10;24.30;81.10
9808;DHT22;4943;52.550;13.462;2023-07-20T14:00:39;24.40;80.70
9808;DHT22;4943;52.550;13.462;2023-07-20T14:03:09;24.50;81.20
9808;DHT22;4943;52.550;13.462;2023-07-20T14:05:40;24.70;81.00
9808;DHT22;4943;52.550;13.462;2023-07-20T14:08:13;24.80;80.00
9808;DHT22;4943;52.550;13.462;2023-07-20T14:10:41;24.90;80.00
9808;DHT22;4943;52.550;13.462;2023-07-20T14:13:12;24.80;78.90
9808;DHT22;4943;52.550;13.462;2023-07-20T14:15:41;24.80;78.80
9808;DHT22;4943;52.550;13.462;2023-07-20T14:18:10;24.80;78.20
9808;DHT22;4943;52.550;13.462;2023-07-20T14:20:38;24.80;78.00
9808;DHT22;4943;52.550;13.462;2023-07-20T14:23:07;24.90;78.10
9808;DHT22;4943;52.550;13.462;2023-07-20T14:25:35;25.00;78.50
9808;DHT22;4943;52.550;13.462;2023-07-20T14:28:04;25.20;78.00
9808;DHT22;4943;52.550;13.462;2023-07-20T14:30:32;25.40;78.30
9808;DHT22;4943;52.550;13.462;2023-07-20T14:33:00;25.50;77.30
9808;DHT22;4943;52.550;13.462;2023-07-20T14:35:30;25.50;76.90
9808;DHT22;4943;52.550;13.462;2023-07-20T14:37:58;25.60;77.10
9808;DHT22;4943;52.550;13.462;2023-07-20T14:40:26;25.60;77.50
9808;DHT22;4943;52.550;13.462;2023-07-20T14:42:55;25.70;77.10
9808;DHT22;4943;52.550;13.462;2023-07-20T14:45:23;25.60;75.80
9808;DHT22;4943;52.550;13.462;2023-07-20T14:47:51;25.40;75.80
9808;DHT22;4943;52.550;13.462;2023-07-20T14:50:21;25.30;76.10
9808;DHT22;4943;52.550;13.462;2023-07-20T14:52:51;25.20;76.70
9808;DHT22;4943;52.550;13.462;2023-07-20T14:55:19;25.20;77.00
9808;DHT22;4943;52.550;13.462;2023-07-20T14:57:48;25.20;77.50
9808;DHT22;4943;52.550;13.462;2023-07-20T15:00:16;25.30;77.20
9808;DHT22;4943;52.550;13.462;2023-07-20T15:02:44;25.40;77.30
9808;DHT22;4943;52.550;13.462;2023-07-20T15:05:20;25.50;75.90
9808;DHT22;4943;52.550;13.462;2023-07-20T15:07:48;25.60;76.20
9808;DHT22;4943;52.550;13.462;2023-07-20T15:10:18;25.80;75.40
9808;DHT22;4943;52.550;13.462;2023-07-20T15:12:46;25.80;74.40
9808;DHT22;4943;52.550;13.462;2023-07-20T15:15:15;25.80;74.40
9808;DHT22;4943;52.550;13.462;2023-07-20T15:17:44;25.80;74.40
9808;DHT22;4943;52.550;13.462;2023-07-20T15:20:13;25.80;74.80
9808;DHT22;4943;52.550;13.462;2023-07-20T15:22:42;25.90;73.40
9808;DHT22;4943;52.550;13.462;2023-07-20T15:25:13;25.90;72.80
9808;DHT22;4943;52.550;13.462;2023-07-20T15:27:43;26.10;73.60
9808;DHT22;4943;52.550;13.462;2023-07-20T15:30:17;26.20;74.30
9808;DHT22;4943;52.550;13.462;2023-07-20T15:32:48;26.50;74.80
9808;DHT22;4943;52.550;13.462;2023-07-20T15:35:19;26.70;73.80
9808;DHT22;4943;52.550;13.462;2023-07-20T15:37:47;26.70;73.30
9808;DHT22;4943;52.550;13.462;2023-07-20T15:40:15;26.70;73.70
9808;DHT22;4943;52.550;13.462;2023-07-20T15:42:45;26.50;72.00
9808;DHT22;4943;52.550;13.462;2023-07-20T15:45:19;26.30;72.10
9808;DHT22;4943;52.550;13.462;2023-07-20T15:47:47;26.10;71.80
9808;DHT22;4943;52.550;13.462;2023-07-20T15:50:16;25.90;71.60
9808;DHT22;4943;52.550;13.462;2023-07-20T15:52:48;25.80;72.10
9808;DHT22;4943;52.550;13.462;2023-07-20T15:55:18;25.60;72.40
9808;DHT22;4943;52.550;13.462;2023-07-20T15:57:48;25.50;72.60
9808;DHT22;4943;52.550;13.462;2023-07-20T16:00:17;25.40;72.00
9808;DHT22;4943;52.550;13.462;2023-07-20T16:02:45;25.30;72.20
9808;DHT22;4943;52.550;13.462;2023-07-20T16:05:15;25.20;72.60